createdAt,value
2023-02-19T00:01:47.814Z,7.53
2023-02-19T00:04:24.898Z,6.30
2023-02-19T00:06:52.447Z,9.52
2023-02-19T00:09:20.514Z,6.03
2023-02-19T00:11:48.240Z,7.68
2023-02-19T00:14:18.673Z,5.18
2023-02-19T00:16:46.659Z,7.85
2023-02-19T00:19:16.989Z,7.00
2023-02-19T00:21:44.695Z,4.32
2023-02-19T00:24:14.382Z,5.95
2023-02-19T00:26:42.928Z,5.80
2023-02-19T00:29:14.759Z,2.92
2023-02-19T00:31:43.355Z,5.13
2023-02-19T00:34:12.064Z,6.45
2023-02-19T00:36:41.124Z,4.75
2023-02-19T00:39:11.813Z,3.63
2023-02-19T00:41:39.562Z,4.47
2023-02-19T00:44:08.266Z,4.03
2023-02-19T00:46:42.186Z,4.97
2023-02-19T00:49:16.520Z,3.53
2023-02-19T00:51:44.160Z,4.93
2023-02-19T00:54:12.856Z,5.75
2023-02-19T00:56:41.205Z,3.45
2023-02-19T00:59:08.926Z,4.13
2023-02-19T01:01:36.518Z,5.13
2023-02-19T01:04:06.551Z,3.75
2023-02-19T01:06:35.648Z,5.57
2023-02-19T01:09:04.890Z,8.63
2023-02-19T01:11:32.706Z,5.50
2023-02-19T01:14:01.332Z,5.55
2023-02-19T01:16:28.979Z,4.85
2023-02-19T01:18:58.045Z,3.58
2023-02-19T01:21:27.729Z,3.95
2023-02-19T01:23:56.492Z,3.33
2023-02-19T01:26:31.503Z,4.35
2023-02-19T01:29:00.489Z,2.13
2023-02-19T01:31:29.337Z,3.20
2023-02-19T01:34:00.350Z,4.53
2023-02-19T01:36:29.535Z,3.47
2023-02-19T01:39:00.473Z,3.53
2023-02-19T01:41:28.049Z,5.10
2023-02-19T01:44:02.629Z,4.90
2023-02-19T01:46:34.881Z,7.03
2023-02-19T01:49:08.231Z,8.82
2023-02-19T01:51:39.691Z,7.43
2023-02-19T01:54:10.132Z,9.25
2023-02-19T01:56:40.818Z,11.05
2023-02-19T01:59:09.396Z,9.63
2023-02-19T02:01:39.303Z,8.07
2023-02-19T02:04:08.689Z,6.63
2023-02-19T02:06:43.239Z,5.53
2023-02-19T02:09:30.024Z,4.80
2023-02-19T02:11:57.631Z,4.70
2023-02-19T02:14:29.072Z,4.22
2023-02-19T02:17:48.790Z,3.22
2023-02-19T02:20:57.583Z,4.80
2023-02-19T02:23:44.446Z,3.67
2023-02-19T02:26:21.715Z,4.30
2023-02-19T02:29:15.079Z,3.05
2023-02-19T02:31:49.807Z,3.58
2023-02-19T02:34:34.178Z,3.20
2023-02-19T02:37:04.322Z,5.03
2023-02-19T02:39:32.895Z,3.22
2023-02-19T02:42:20.627Z,2.97
2023-02-19T02:45:51.165Z,4.10
2023-02-19T02:48:33.178Z,2.65
2023-02-19T02:51:29.017Z,4.65
2023-02-19T02:54:48.700Z,4.82
2023-02-19T02:57:19.470Z,3.20
2023-02-19T02:59:51.914Z,3.78
2023-02-19T03:02:27.435Z,4.32
2023-02-19T03:05:14.626Z,4.63
2023-02-19T03:07:56.003Z,3.65
2023-02-19T03:10:36.282Z,5.85
2023-02-19T03:13:27.094Z,4.28
2023-02-19T03:16:29.969Z,4.18
2023-02-19T03:19:18.236Z,3.05
2023-02-19T03:21:53.942Z,3.42
2023-02-19T03:24:45.888Z,3.33
2023-02-19T03:27:16.081Z,2.90
2023-02-19T03:29:50.988Z,3.33
2023-02-19T03:32:28.656Z,2.30
2023-02-19T03:35:05.742Z,2.58
2023-02-19T03:37:40.025Z,3.03
2023-02-19T03:40:08.441Z,3.25
2023-02-19T03:43:01.167Z,3.17
2023-02-19T03:46:08.496Z,2.75
2023-02-19T03:48:41.995Z,3.63
2023-02-19T03:51:23.149Z,3.63
2023-02-19T03:54:17.316Z,4.32
2023-02-19T03:56:53.764Z,2.58
2023-02-19T03:59:32.867Z,2.42
2023-02-19T04:02:06.601Z,3.20
2023-02-19T04:04:37.384Z,3.00
2023-02-19T04:07:06.020Z,3.20
2023-02-19T04:09:41.571Z,2.92
2023-02-19T04:12:15.591Z,3.80
2023-02-19T04:15:06.642Z,3.03
2023-02-19T04:17:55.752Z,5.63
2023-02-19T04:20:27.696Z,3.00
2023-02-19T04:22:57.036Z,2.58
2023-02-19T04:25:27.243Z,2.70
2023-02-19T04:27:55.031Z,3.83
2023-02-19T04:30:22.713Z,4.53
2023-02-19T04:32:50.212Z,2.58
2023-02-19T04:35:17.823Z,3.25
2023-02-19T04:37:45.300Z,3.88
2023-02-19T04:40:12.955Z,3.38
2023-02-19T04:42:40.476Z,4.03
2023-02-19T04:45:08.313Z,4.35
2023-02-19T04:47:35.814Z,3.17
2023-02-19T04:50:03.989Z,7.45
2023-02-19T04:52:33.297Z,4.00
2023-02-19T04:55:01.064Z,5.53
2023-02-19T04:57:28.616Z,5.07
2023-02-19T04:59:57.344Z,7.32
2023-02-19T05:02:25.189Z,4.60
2023-02-19T05:04:52.854Z,7.30
2023-02-19T05:07:20.404Z,5.55
2023-02-19T05:09:47.983Z,4.63
2023-02-19T05:12:15.468Z,5.38
2023-02-19T05:14:42.931Z,4.80
2023-02-19T05:17:10.666Z,4.47
2023-02-19T05:19:38.213Z,5.47
2023-02-19T05:22:05.874Z,6.25
2023-02-19T05:24:33.503Z,7.82
2023-02-19T05:27:01.043Z,6.75
2023-02-19T05:29:30.975Z,9.80
2023-02-19T05:31:59.018Z,6.07
2023-02-19T05:34:26.598Z,7.20
2023-02-19T05:36:54.295Z,10.55
2023-02-19T05:39:21.998Z,100.63
2023-02-19T05:41:49.839Z,59.22
2023-02-19T05:44:17.330Z,94.13
2023-02-19T05:46:44.944Z,49.28
2023-02-19T05:49:12.595Z,33.35
2023-02-19T05:51:40.233Z,28.88
2023-02-19T05:54:07.868Z,12.77
2023-02-19T05:56:41.281Z,12.32
2023-02-19T05:59:23.436Z,15.98
2023-02-19T06:01:52.790Z,12.50
2023-02-19T06:04:20.473Z,12.68
2023-02-19T06:06:48.796Z,11.48
2023-02-19T06:09:16.589Z,16.88
2023-02-19T06:11:44.861Z,16.38
2023-02-19T06:14:14.114Z,29.10
2023-02-19T06:16:41.764Z,12.98
2023-02-19T06:19:10.021Z,11.68
2023-02-19T06:21:38.051Z,11.50
2023-02-19T06:24:09.701Z,9.50
2023-02-19T06:26:38.207Z,15.27
2023-02-19T06:29:05.696Z,9.68
2023-02-19T06:31:33.557Z,11.35
2023-02-19T06:34:04.840Z,19.05
2023-02-19T06:36:32.453Z,24.23
2023-02-19T06:39:00.835Z,25.88
2023-02-19T06:41:28.441Z,112.45
2023-02-19T06:43:57.981Z,51.90
2023-02-19T06:46:27.931Z,24.90
2023-02-19T06:48:57.374Z,13.57
2023-02-19T06:51:27.245Z,21.67
2023-02-19T06:53:54.779Z,19.70
2023-02-19T06:56:34.817Z,18.08
2023-02-19T06:59:05.241Z,18.40
2023-02-19T07:01:35.146Z,14.95
2023-02-19T07:04:03.643Z,13.73
2023-02-19T07:06:31.763Z,11.88
2023-02-19T07:09:00.032Z,17.83
2023-02-19T07:11:33.818Z,13.40
2023-02-19T07:14:03.224Z,11.43
2023-02-19T07:16:30.952Z,15.18
2023-02-19T07:18:59.546Z,96.50
2023-02-19T07:21:28.076Z,30.40
2023-02-19T07:23:55.839Z,99.93
2023-02-19T07:26:23.950Z,48.53
2023-02-19T07:28:52.344Z,61.85
2023-02-19T07:31:22.446Z,28.63
2023-02-19T07:33:50.465Z,19.45
2023-02-19T07:36:19.487Z,15.23
2023-02-19T07:38:47.556Z,11.38
2023-02-19T07:41:15.439Z,8.00
2023-02-19T07:43:43.206Z,8.73
2023-02-19T07:46:13.229Z,7.80
2023-02-19T07:48:42.696Z,6.10
2023-02-19T07:51:19.029Z,7.70
2023-02-19T07:53:47.979Z,6.05
2023-02-19T07:56:15.763Z,9.10
2023-02-19T07:58:45.370Z,5.22
2023-02-19T08:01:40.224Z,6.32
2023-02-19T08:04:08.077Z,5.78
2023-02-19T08:06:35.591Z,8.20
2023-02-19T08:09:04.503Z,8.30
2023-02-19T08:11:51.176Z,7.85
2023-02-19T08:14:18.916Z,11.30
2023-02-19T08:16:50.888Z,21.85
2023-02-19T08:19:19.411Z,20.67
2023-02-19T08:21:47.227Z,10.55
2023-02-19T08:24:14.783Z,12.13
2023-02-19T08:26:42.343Z,10.43
2023-02-19T08:29:10.205Z,12.60
2023-02-19T08:31:37.921Z,14.40
2023-02-19T08:34:05.608Z,13.68
2023-02-19T08:36:33.158Z,13.38
2023-02-19T08:39:00.971Z,13.65
2023-02-19T08:41:28.593Z,14.43
2023-02-19T08:43:56.386Z,19.30
2023-02-19T08:46:23.947Z,14.13
2023-02-19T08:48:52.196Z,15.27
2023-02-19T08:51:20.149Z,16.83
2023-02-19T08:53:47.868Z,15.82
2023-02-19T08:56:17.495Z,16.23
2023-02-19T08:58:45.647Z,17.95
2023-02-19T09:01:15.831Z,15.85
2023-02-19T09:03:44.146Z,17.88
2023-02-19T09:06:19.822Z,17.38
2023-02-19T09:08:47.477Z,17.27
2023-02-19T09:11:15.315Z,15.60
2023-02-19T09:13:43.712Z,18.38
2023-02-19T09:16:12.283Z,16.23
2023-02-19T09:18:40.199Z,20.90
2023-02-19T09:21:07.711Z,21.90
2023-02-19T09:23:36.636Z,23.33
2023-02-19T09:26:08.768Z,20.92
2023-02-19T09:28:36.554Z,26.92
2023-02-19T09:31:08.979Z,25.85
2023-02-19T09:33:37.245Z,25.15
2023-02-19T09:36:05.127Z,26.63
2023-02-19T09:38:32.696Z,27.33
2023-02-19T09:41:07.744Z,35.50
2023-02-19T09:43:35.754Z,29.50
2023-02-19T09:46:37.871Z,29.30
2023-02-19T09:49:10.987Z,38.05
2023-02-19T09:51:41.309Z,28.23
2023-02-19T09:54:24.747Z,28.27
2023-02-19T09:56:55.577Z,27.23
2023-02-19T09:59:31.797Z,29.35
2023-02-19T10:02:11.778Z,29.33
2023-02-19T10:04:42.343Z,28.75
2023-02-19T10:07:19.385Z,28.45
2023-02-19T10:10:01.172Z,24.35
2023-02-19T10:12:31.353Z,25.55
2023-02-19T10:15:11.508Z,21.60
2023-02-19T10:17:39.044Z,22.50
2023-02-19T10:20:10.261Z,25.85
2023-02-19T10:22:39.007Z,19.42
2023-02-19T10:25:07.288Z,21.42
2023-02-19T10:27:35.018Z,20.05
2023-02-19T10:30:02.927Z,17.17
2023-02-19T10:32:30.941Z,18.13
2023-02-19T10:35:09.664Z,17.30
2023-02-19T10:37:46.706Z,18.17
2023-02-19T10:40:20.312Z,16.33
2023-02-19T10:42:50.302Z,16.58
2023-02-19T10:45:53.030Z,14.27
2023-02-19T10:48:29.027Z,14.48
2023-02-19T10:51:05.036Z,12.52
2023-02-19T10:53:40.279Z,12.23
2023-02-19T10:56:14.373Z,11.77
2023-02-19T10:58:45.031Z,13.65
2023-02-19T11:01:25.625Z,11.10
2023-02-19T11:04:17.989Z,10.82
2023-02-19T11:06:46.574Z,10.70
2023-02-19T11:09:28.347Z,10.02
2023-02-19T11:11:57.608Z,10.60
2023-02-19T11:14:27.006Z,10.90
2023-02-19T11:16:57.047Z,11.18
2023-02-19T11:19:50.674Z,10.98
2023-02-19T11:22:33.860Z,12.02
2023-02-19T11:25:17.811Z,13.02
2023-02-19T11:27:55.304Z,10.48
2023-02-19T11:30:26.047Z,11.93
2023-02-19T11:32:53.587Z,12.00
2023-02-19T11:35:25.215Z,11.65
2023-02-19T11:38:02.025Z,12.93
2023-02-19T11:41:03.412Z,13.57
2023-02-19T11:43:52.619Z,11.85
2023-02-19T11:46:59.057Z,11.13
2023-02-19T11:50:08.976Z,10.93
2023-02-19T11:52:59.714Z,10.82
2023-02-19T11:55:39.655Z,10.65
2023-02-19T11:58:07.166Z,10.90
2023-02-19T12:00:47.883Z,12.18
2023-02-19T12:03:15.546Z,11.82
2023-02-19T12:06:03.508Z,12.88
2023-02-19T12:08:49.885Z,11.70
2023-02-19T12:11:32.258Z,13.50
2023-02-19T12:14:21.142Z,11.57
2023-02-19T12:17:19.906Z,10.13
2023-02-19T12:19:58.748Z,9.57
2023-02-19T12:22:48.851Z,9.30
2023-02-19T12:25:34.660Z,7.63
2023-02-19T12:28:08.187Z,8.00
2023-02-19T12:31:02.989Z,7.90
2023-02-19T12:36:19.296Z,6.72
2023-02-19T12:39:04.926Z,6.50
2023-02-19T12:41:55.429Z,9.27
2023-02-19T12:44:40.687Z,5.63
2023-02-19T12:47:16.362Z,6.78
2023-02-19T12:50:13.513Z,8.35
2023-02-19T12:52:46.349Z,6.47
2023-02-19T12:55:24.330Z,6.88
2023-02-19T12:57:54.767Z,7.72
2023-02-19T13:00:42.585Z,11.63
2023-02-19T13:03:21.316Z,31.17
2023-02-19T13:06:14.302Z,5.65
2023-02-19T13:09:06.341Z,23.02
2023-02-19T13:11:47.968Z,7.63
2023-02-19T13:14:20.027Z,11.23
2023-02-19T13:16:53.659Z,5.18
2023-02-19T13:19:21.254Z,3.10
2023-02-19T13:22:32.019Z,3.45
2023-02-19T13:25:01.976Z,4.90
2023-02-19T13:27:44.866Z,1.75
2023-02-19T13:30:48.873Z,2.55
2023-02-19T13:33:39.982Z,2.25
2023-02-19T13:36:20.343Z,3.08
2023-02-19T13:38:50.030Z,4.95
2023-02-19T13:41:20.676Z,5.50
2023-02-19T13:43:55.555Z,3.58
2023-02-19T13:46:24.693Z,3.60
2023-02-19T13:49:27.799Z,2.72
2023-02-19T13:52:01.176Z,20.10
2023-02-19T13:54:31.264Z,23.08
2023-02-19T13:57:23.597Z,19.17
2023-02-19T13:59:53.259Z,12.90
2023-02-19T14:02:20.954Z,17.98
2023-02-19T14:05:00.308Z,12.45
2023-02-19T14:07:28.055Z,4.85
2023-02-19T14:09:56.207Z,6.25
2023-02-19T14:12:33.572Z,7.90
2023-02-19T14:15:41.570Z,6.53
2023-02-19T14:18:41.303Z,7.70
2023-02-19T14:21:26.135Z,2.85
2023-02-19T14:23:57.519Z,4.13
2023-02-19T14:26:26.798Z,6.93
2023-02-19T14:28:54.856Z,5.72
2023-02-19T14:31:29.232Z,7.85
2023-02-19T14:34:02.070Z,10.48
2023-02-19T14:36:48.945Z,3.05
2023-02-19T14:39:30.313Z,4.93
2023-02-19T14:42:02.000Z,4.35
2023-02-19T14:44:32.888Z,6.35
2023-02-19T14:47:11.768Z,4.35
2023-02-19T14:49:47.983Z,1.75
2023-02-19T14:52:30.497Z,2.20
2023-02-19T14:55:15.443Z,6.53
2023-02-19T14:57:49.219Z,9.75
2023-02-19T15:00:22.501Z,13.43
2023-02-19T15:02:52.457Z,9.68
2023-02-19T15:05:29.544Z,9.75
2023-02-19T15:08:06.583Z,9.00
2023-02-19T15:10:36.241Z,34.47
2023-02-19T15:13:06.699Z,5.82
2023-02-19T15:15:43.206Z,6.53
2023-02-19T15:18:20.932Z,6.63
2023-02-19T15:20:49.471Z,18.25
2023-02-19T15:23:24.883Z,8.20
2023-02-19T15:25:53.158Z,27.95
2023-02-19T15:28:23.737Z,6.18
2023-02-19T15:31:07.448Z,14.40
2023-02-19T15:33:35.417Z,4.20
2023-02-19T15:36:06.861Z,19.98
2023-02-19T15:38:35.017Z,6.85
2023-02-19T15:41:03.112Z,5.78
2023-02-19T15:43:51.218Z,5.30
2023-02-19T15:46:21.659Z,4.32
2023-02-19T15:49:01.871Z,12.00
2023-02-19T15:51:47.640Z,4.30
2023-02-19T15:54:27.126Z,3.38
2023-02-19T15:57:00.589Z,9.88
2023-02-19T15:59:43.319Z,5.15
2023-02-19T16:02:15.564Z,3.83
2023-02-19T16:04:45.091Z,7.82
2023-02-19T16:07:34.829Z,2.58
2023-02-19T16:10:24.427Z,3.95
2023-02-19T16:12:59.729Z,3.80
2023-02-19T16:15:31.476Z,1.55
2023-02-19T16:18:00.357Z,6.60
2023-02-19T16:20:33.732Z,6.50
2023-02-19T16:23:11.441Z,5.20
2023-02-19T16:25:44.120Z,7.95
2023-02-19T16:28:24.077Z,3.55
2023-02-19T16:31:05.217Z,4.95
2023-02-19T16:33:36.438Z,2.80
2023-02-19T16:36:41.501Z,6.00
2023-02-19T16:39:09.479Z,4.95
2023-02-19T16:41:41.160Z,6.13
2023-02-19T16:44:21.108Z,6.05
2023-02-19T16:46:54.955Z,10.68
2023-02-19T16:49:24.445Z,5.18
2023-02-19T16:51:52.477Z,4.72
2023-02-19T16:54:20.389Z,5.65
2023-02-19T16:56:48.192Z,4.40
2023-02-19T16:59:16.064Z,9.15
2023-02-19T17:01:44.029Z,14.40
2023-02-19T17:04:15.662Z,11.07
2023-02-19T17:06:44.448Z,5.15
2023-02-19T17:09:12.124Z,7.10
2023-02-19T17:11:40.126Z,9.43
2023-02-19T17:14:09.296Z,13.77
2023-02-19T17:16:40.621Z,9.07
2023-02-19T17:19:16.910Z,3.25
2023-02-19T17:21:46.599Z,9.13
2023-02-19T17:24:14.747Z,8.05
2023-02-19T17:26:42.548Z,14.63
2023-02-19T17:29:14.407Z,8.63
2023-02-19T17:31:42.329Z,3.75
2023-02-19T17:34:11.209Z,6.10
2023-02-19T17:36:40.437Z,9.10
2023-02-19T17:39:15.129Z,6.07
2023-02-19T17:41:43.462Z,9.77
2023-02-19T17:44:11.599Z,12.50
2023-02-19T17:46:39.680Z,8.20
2023-02-19T17:49:08.409Z,6.57
2023-02-19T17:51:36.468Z,4.78
2023-02-19T17:54:05.200Z,2.90
2023-02-19T17:56:33.737Z,7.03
2023-02-19T17:59:01.664Z,8.05
2023-02-19T18:01:30.929Z,4.70
2023-02-19T18:03:59.059Z,6.85
2023-02-19T18:06:27.595Z,4.78
2023-02-19T18:08:55.639Z,3.25
2023-02-19T18:11:23.996Z,7.13
2023-02-19T18:13:52.654Z,5.93
2023-02-19T18:16:21.420Z,4.03
2023-02-19T18:18:50.678Z,4.82
2023-02-19T18:21:18.869Z,2.20
2023-02-19T18:23:47.580Z,7.65
2023-02-19T18:26:19.641Z,5.03
2023-02-19T18:28:50.569Z,8.90
2023-02-19T18:31:18.469Z,5.43
2023-02-19T18:33:46.394Z,4.55
2023-02-19T18:36:16.022Z,7.38
2023-02-19T18:38:43.763Z,11.23
2023-02-19T18:41:14.469Z,6.05
2023-02-19T18:43:46.280Z,4.82
2023-02-19T18:46:14.565Z,7.60
2023-02-19T18:48:42.936Z,7.03
2023-02-19T18:51:12.172Z,8.40
2023-02-19T18:53:42.944Z,9.35
2023-02-19T18:56:12.990Z,11.77
2023-02-19T18:58:41.373Z,10.20
2023-02-19T19:01:09.664Z,9.70
2023-02-19T19:03:37.726Z,11.70
2023-02-19T19:06:08.288Z,13.13
2023-02-19T19:08:36.054Z,7.90
2023-02-19T19:11:05.268Z,9.15
2023-02-19T19:13:33.177Z,6.63
2023-02-19T19:16:02.239Z,5.63
2023-02-19T19:18:31.287Z,22.73
2023-02-19T19:21:03.532Z,10.55
2023-02-19T19:23:31.707Z,15.18
2023-02-19T19:25:59.452Z,8.88
2023-02-19T19:28:27.608Z,9.32
2023-02-19T19:30:57.216Z,12.07
2023-02-19T19:33:28.154Z,7.38
2023-02-19T19:35:59.130Z,9.82
2023-02-19T19:38:27.482Z,9.93
2023-02-19T19:40:55.054Z,15.30
2023-02-19T19:43:27.174Z,25.38
2023-02-19T19:45:55.644Z,15.43
2023-02-19T19:48:24.676Z,8.02
2023-02-19T19:50:54.494Z,10.05
2023-02-19T19:53:24.338Z,10.68
2023-02-19T19:55:55.181Z,8.88
2023-02-19T19:58:24.834Z,8.25
2023-02-19T20:01:04.367Z,10.55
2023-02-19T20:03:33.839Z,8.15
2023-02-19T20:06:02.845Z,9.63
2023-02-19T20:08:31.233Z,9.88
2023-02-19T20:10:59.297Z,10.95
2023-02-19T20:13:30.428Z,9.07
2023-02-19T20:15:59.518Z,7.93
2023-02-19T20:18:28.602Z,8.45
2023-02-19T20:21:05.671Z,7.55
2023-02-19T20:23:33.536Z,7.88
2023-02-19T20:26:02.102Z,7.90
2023-02-19T20:28:29.909Z,9.73
2023-02-19T20:30:57.765Z,9.02
2023-02-19T20:33:26.221Z,7.82
2023-02-19T20:35:58.546Z,8.38
2023-02-19T20:38:26.674Z,8.52
2023-02-19T20:40:59.864Z,7.28
2023-02-19T20:43:28.609Z,9.82
2023-02-19T20:45:56.489Z,9.45
2023-02-19T20:48:24.298Z,9.18
2023-02-19T20:51:09.953Z,8.82
2023-02-19T20:53:38.702Z,10.10
2023-02-19T20:56:07.625Z,9.00
2023-02-19T20:58:35.707Z,10.18
2023-02-19T21:01:03.851Z,9.73
2023-02-19T21:03:31.485Z,9.90
2023-02-19T21:05:59.295Z,9.57
2023-02-19T21:08:27.074Z,10.88
2023-02-19T21:10:57.712Z,10.25
2023-02-19T21:13:25.407Z,9.88
2023-02-19T21:15:52.949Z,10.38
2023-02-19T21:18:21.059Z,10.43
2023-02-19T21:20:48.793Z,9.90
2023-02-19T21:23:17.043Z,10.55
2023-02-19T21:25:44.566Z,9.13
2023-02-19T21:28:12.501Z,11.38
2023-02-19T21:30:40.188Z,10.63
2023-02-19T21:33:07.827Z,13.30
2023-02-19T21:35:35.621Z,11.45
2023-02-19T21:38:03.601Z,10.77
2023-02-19T21:40:32.852Z,9.18
2023-02-19T21:43:00.513Z,11.57
2023-02-19T21:45:28.377Z,8.85
2023-02-19T21:47:55.925Z,9.32
2023-02-19T21:50:23.614Z,8.30
2023-02-19T21:52:51.201Z,11.02
2023-02-19T21:55:18.849Z,9.07
2023-02-19T21:57:46.653Z,10.20
2023-02-19T22:00:14.811Z,11.35
2023-02-19T22:02:43.095Z,11.27
2023-02-19T22:05:10.872Z,11.40
2023-02-19T22:07:38.642Z,10.50
2023-02-19T22:10:08.961Z,8.02
2023-02-19T22:12:40.205Z,6.82
2023-02-19T22:15:08.374Z,10.63
2023-02-19T22:17:36.227Z,7.93
2023-02-19T22:20:04.413Z,10.20
2023-02-19T22:22:32.271Z,8.60
2023-02-19T22:24:59.836Z,7.82
2023-02-19T22:27:28.974Z,7.53
2023-02-19T22:29:58.562Z,7.45
2023-02-19T22:32:26.267Z,9.60
2023-02-19T22:34:54.021Z,8.32
2023-02-19T22:37:21.542Z,7.97
2023-02-19T22:39:49.083Z,8.82
2023-02-19T22:42:16.797Z,7.95
2023-02-19T22:44:44.546Z,10.48
2023-02-19T22:47:12.066Z,7.40
2023-02-19T22:49:43.742Z,7.70
2023-02-19T22:52:11.675Z,8.88
2023-02-19T22:54:39.733Z,8.85
2023-02-19T22:57:07.297Z,10.52
2023-02-19T22:59:35.003Z,9.57
2023-02-19T23:02:02.582Z,7.53
2023-02-19T23:04:31.794Z,7.10
2023-02-19T23:06:59.396Z,8.65
2023-02-19T23:09:28.945Z,8.82
2023-02-19T23:12:05.886Z,10.40
2023-02-19T23:14:33.546Z,10.30
2023-02-19T23:17:01.193Z,9.13
2023-02-19T23:19:29.424Z,8.98
2023-02-19T23:21:57.486Z,9.68
2023-02-19T23:24:25.177Z,11.13
2023-02-19T23:26:53.580Z,8.23
2023-02-19T23:29:25.338Z,7.68
2023-02-19T23:31:54.216Z,7.00
2023-02-19T23:34:22.181Z,10.02
2023-02-19T23:36:50.807Z,9.23
2023-02-19T23:39:21.560Z,8.57
2023-02-19T23:41:52.686Z,8.75
2023-02-19T23:44:21.679Z,13.80
2023-02-19T23:46:50.489Z,10.20
2023-02-19T23:49:19.232Z,11.05
2023-02-19T23:51:46.832Z,8.32
2023-02-19T23:54:14.671Z,9.68
2023-02-19T23:56:42.201Z,8.93
2023-02-19T23:59:09.718Z,8.38
